NCAR-RAP Real-Time Weather Data

Output produced by METARs form (21 August 2017  04:39 UTC)
found at http://weather.rap.ucar.edu/surface/
 
Conditions at: KLAL observed 21 August 2017  04:35 UTC
Temperature: 25.0°C (77°F)
Dewpoint: 25.0°C (77°F) [RH = 100%]
Pressure (altimeter): 30.12 inches Hg (1020.1 mb)
Winds: calm
Visibility: missing
Ceiling: unknown
Clouds: missing
Present Weather: automated observation with no human augmentation;
there may or may not be significant weather present at this time
KLAL 210435Z AUTO 00000KT 25/25 A3012 RMK AO2 PWINO

Conditions at: KLAL observed 21 August 2017  03:55 UTC
Temperature: 26.0°C (79°F)
Dewpoint: 25.0°C (77°F) [RH = 94%]
Pressure (altimeter): 30.12 inches Hg (1020.1 mb)
Winds: from the ESE (120 degrees) at 3 MPH (3 knots; 1.6 m/s)
Visibility: missing
Ceiling: unknown
Clouds: missing
Present Weather: automated observation with no human augmentation;
there may or may not be significant weather present at this time
KLAL 210355Z AUTO 12003KT 26/25 A3012 RMK AO2 LTG DSNT SW PWINO

Conditions at: KLAL observed 21 August 2017  03:35 UTC
Temperature: 26.0°C (79°F)
Dewpoint: 25.0°C (77°F) [RH = 94%]
Pressure (altimeter): 30.12 inches Hg (1020.1 mb)
Winds: from the ESE (120 degrees) at 3 MPH (3 knots; 1.6 m/s)
Visibility: missing
Ceiling: unknown
Clouds: missing
Present Weather: automated observation with no human augmentation;
there may or may not be significant weather present at this time
KLAL 210335Z AUTO 12003KT 26/25 A3012 RMK AO2 PWINO

Conditions at: KLAL observed 21 August 2017  03:15 UTC
Temperature: 26.0°C (79°F)
Dewpoint: 25.0°C (77°F) [RH = 94%]
Pressure (altimeter): 30.12 inches Hg (1020.1 mb)
Winds: from the ESE (120 degrees) at 3 MPH (3 knots; 1.6 m/s)
Visibility: missing
Ceiling: unknown
Clouds: missing
Present Weather: automated observation with no human augmentation;
there may or may not be significant weather present at this time
KLAL 210315Z AUTO 12003KT 26/25 A3012 RMK AO2 PWINO

Conditions at: KLAL observed 21 August 2017  02:55 UTC
Temperature: 25.0°C (77°F)
Dewpoint: 25.0°C (77°F) [RH = 100%]
Pressure (altimeter): 30.11 inches Hg (1019.7 mb)
Winds: from the SE (130 degrees) at 5 MPH (4 knots; 2.1 m/s)
Visibility: missing
Ceiling: unknown
Clouds: missing
Present Weather: automated observation with no human augmentation;
there may or may not be significant weather present at this time
KLAL 210255Z AUTO 13004KT 25/25 A3011 RMK AO2 LTG DSNT S PWINO

Conditions at: KLAL observed 21 August 2017  02:35 UTC
Temperature: 25.0°C (77°F)
Dewpoint: 24.0°C (75°F) [RH = 94%]
Pressure (altimeter): 30.10 inches Hg (1019.4 mb)
Winds: from the ESE (120 degrees) at 5 MPH (4 knots; 2.1 m/s)
Visibility: missing
Ceiling: unknown
Clouds: missing
Present Weather: automated observation with no human augmentation;
there may or may not be significant weather present at this time
KLAL 210235Z AUTO 12004KT 25/24 A3010 RMK AO2 LTG DSNT NW PWINO

Conditions at: KLAL observed 21 August 2017  02:15 UTC
Temperature: 25.0°C (77°F)
Dewpoint: 24.0°C (75°F) [RH = 94%]
Pressure (altimeter): 30.09 inches Hg (1019.0 mb)
Winds: from the E (90 degrees) at 3 MPH (3 knots; 1.6 m/s)
Visibility: missing
Ceiling: unknown
Clouds: missing
Present Weather: automated observation with no human augmentation;
there may or may not be significant weather present at this time
KLAL 210215Z AUTO 09003KT 25/24 A3009 RMK AO2 PWINO

Conditions at: KLAL observed 21 August 2017  01:45 UTC
Temperature: 25.0°C (77°F)
Dewpoint: 24.0°C (75°F) [RH = 94%]
Pressure (altimeter): 30.08 inches Hg (1018.7 mb)
Winds: from the ESE (110 degrees) at 5 MPH (4 knots; 2.1 m/s)
Visibility: 10 or more miles (16+ km)
Ceiling: at least 12,000 feet AGL
Clouds: scattered clouds at 8000 feet AGL
Present Weather: no significant weather observed at this time
KLAL 210145Z 11004KT 10SM SCT080 25/24 A3008

Conditions at: KLAL observed 21 August 2017  00:45 UTC
Temperature: 26.0°C (79°F)
Dewpoint: 26.0°C (79°F) [RH = 100%]
Pressure (altimeter): 30.07 inches Hg (1018.4 mb)
Winds: from the ESE (120 degrees) at 8 MPH (7 knots; 3.6 m/s)
Visibility: 10 or more miles (16+ km)
Ceiling: 8000 feet AGL
Clouds: broken clouds at 8000 feet AGL
Present Weather: no significant weather observed at this time
KLAL 210045Z 12007KT 10SM BKN080 26/26 A3007

Conditions at: KLAL observed 20 August 2017  23:45 UTC
Temperature: 26.0°C (79°F)
Dewpoint: 26.0°C (79°F) [RH = 100%]
Pressure (altimeter): 30.06 inches Hg (1018.0 mb)
Winds: from the E (100 degrees) at 8 MPH (7 knots; 3.6 m/s)
Visibility: 10 or more miles (16+ km)
Ceiling: 8000 feet AGL
Clouds: broken clouds at 8000 feet AGL
Present Weather: no significant weather observed at this time
KLAL 202345Z 10007KT 10SM BKN080 26/26 A3006

Conditions at: KLAL observed 20 August 2017  22:50 UTC
Temperature: 26.0°C (79°F)
Dewpoint: 26.0°C (79°F) [RH = 100%]
Pressure (altimeter): 30.04 inches Hg (1017.4 mb)
Winds: from the ESE (110 degrees) at 7 MPH (6 knots; 3.1 m/s)
Visibility: 10 or more miles (16+ km)
Ceiling: 8000 feet AGL
Clouds: scattered clouds at 2200 feet AGL
broken clouds at 8000 feet AGL
Present Weather: no significant weather observed at this time
KLAL 202250Z 11006KT 10SM SCT022 BKN080 26/26 A3004

Conditions at: KLAL observed 20 August 2017  21:45 UTC
Temperature: 24.0°C (75°F)
Dewpoint: 24.0°C (75°F) [RH = 100%]
Pressure (altimeter): 30.05 inches Hg (1017.7 mb)
Winds: from the SE (130 degrees) at 7 MPH (6 knots; 3.1 m/s)
Visibility: 7 miles (11 km)
Ceiling: 5000 feet AGL
Clouds: scattered clouds at 2200 feet AGL
broken clouds at 5000 feet AGL
Present Weather: -RA  (light rain)
KLAL 202145Z 13006KT 7SM -RA SCT022 BKN050 24/24 A3005

Conditions at: KLAL observed 20 August 2017  20:45 UTC
Temperature: 25.0°C (77°F)
Dewpoint: 22.0°C (72°F) [RH = 83%]
Pressure (altimeter): 30.03 inches Hg (1017.0 mb)
Winds: from the SSE (160 degrees) at 5 MPH (4 knots; 2.1 m/s)
Visibility: 10 or more miles (16+ km)
Ceiling: 5000 feet AGL
Clouds: scattered clouds at 2200 feet AGL
broken clouds at 5000 feet AGL
Present Weather: VCSH  (showers in vicinity)
KLAL 202045Z 16004KT 10SM VCSH SCT022 BKN050 25/22 A3003 RMK TSB08E2045

Conditions at: KLAL observed 20 August 2017  20:10 UTC
Temperature: 32.0°C (90°F)
Dewpoint: 23.0°C (73°F) [RH = 59%]
Pressure (altimeter): 30.05 inches Hg (1017.7 mb)
Winds: from the ESE (110 degrees) at 3 MPH (3 knots; 1.6 m/s)
Visibility: 2.00 miles (3.22 km)
Ceiling: 4000 feet AGL
Clouds: broken clouds at 4000 feet AGL
Present Weather: +TSRA  (heavy rain associated with thunderstorm(s))
KLAL 202010Z 11003KT 2SM +TSRA BKN040 32/23 A3005

Conditions at: KLAL observed 20 August 2017  19:45 UTC
Temperature: 32.0°C (90°F)
Dewpoint: 23.0°C (73°F) [RH = 59%]
Pressure (altimeter): 30.03 inches Hg (1017.0 mb)
Winds: from the ESE (110 degrees) at 3 MPH (3 knots; 1.6 m/s)
Visibility: 10 or more miles (16+ km)
Ceiling: 4000 feet AGL
Clouds: broken clouds at 4000 feet AGL
Present Weather: no significant weather observed at this time
KLAL 201945Z 11003KT 10SM BKN040 32/23 A3003

Conditions at: KLAL observed 20 August 2017  18:45 UTC
Temperature: 32.0°C (90°F)
Dewpoint: 23.0°C (73°F) [RH = 59%]
Pressure (altimeter): 30.04 inches Hg (1017.4 mb)
Winds: from the ESE (110 degrees) at 8 MPH (7 knots; 3.6 m/s)
Visibility: 10 or more miles (16+ km)
Ceiling: 4200 feet AGL
Clouds: broken clouds at 4200 feet AGL
Present Weather: no significant weather observed at this time
KLAL 201845Z 11007KT 10SM BKN042 32/23 A3004

Conditions at: KLAL observed 20 August 2017  17:47 UTC
Temperature: 32.0°C (90°F)
Dewpoint: 23.0°C (73°F) [RH = 59%]
Pressure (altimeter): 30.05 inches Hg (1017.7 mb)
Winds: from the E (100 degrees) at 5 MPH (4 knots; 2.1 m/s)
Visibility: 10 or more miles (16+ km)
Ceiling: at least 12,000 feet AGL
Clouds: scattered clouds at 3800 feet AGL
Present Weather: no significant weather observed at this time
KLAL 201747Z 10004KT 10SM SCT038 32/23 A3005

Conditions at: KLAL observed 20 August 2017  16:50 UTC
Temperature: 32.0°C (90°F)
Dewpoint: 23.0°C (73°F) [RH = 59%]
Pressure (altimeter): 30.06 inches Hg (1018.0 mb)
Winds: from the E (90 degrees) at 7 MPH (6 knots; 3.1 m/s)
Visibility: 10 or more miles (16+ km)
Ceiling: at least 12,000 feet AGL
Clouds: scattered clouds at 3000 feet AGL
Present Weather: no significant weather observed at this time
KLAL 201650Z 09006KT 10SM SCT030 32/23 A3006

Conditions at: KLAL observed 20 August 2017  15:50 UTC
Temperature: 31.0°C (88°F)
Dewpoint: 23.0°C (73°F) [RH = 63%]
Pressure (altimeter): 30.07 inches Hg (1018.4 mb)
Winds: calm
Visibility: 10 or more miles (16+ km)
Ceiling: at least 12,000 feet AGL
Clouds: scattered clouds at 3000 feet AGL
Present Weather: no significant weather observed at this time
KLAL 201550Z 00000KT 10SM SCT030 31/23 A3007

Conditions at: KLAL observed 20 August 2017  14:55 UTC
Temperature: 30.0°C (86°F)
Dewpoint: 23.0°C (73°F) [RH = 66%]
Pressure (altimeter): 30.06 inches Hg (1018.0 mb)
Winds: from the SE (130 degrees) at 5 MPH (4 knots; 2.1 m/s)
Visibility: 10 or more miles (16+ km)
Ceiling: at least 12,000 feet AGL
Clouds: few clouds at 2500 feet AGL
Present Weather: no significant weather observed at this time
KLAL 201455Z 13004KT 10SM FEW025 30/23 A3006

Conditions at: KLAL observed 20 August 2017  13:55 UTC
Temperature: 30.0°C (86°F)
Dewpoint: 24.0°C (75°F) [RH = 70%]
Pressure (altimeter): 30.05 inches Hg (1017.7 mb)
Winds: from the E (100 degrees) at 5 MPH (4 knots; 2.1 m/s)
Visibility: 10 or more miles (16+ km)
Ceiling: at least 12,000 feet AGL
Clouds: clear skies
Present Weather: no significant weather observed at this time
KLAL 201355Z 10004KT 10SM SKC 30/24 A3005

Conditions at: KLAL observed 20 August 2017  12:50 UTC
Temperature: 28.0°C (82°F)
Dewpoint: 26.0°C (79°F) [RH = 89%]
Pressure (altimeter): 30.05 inches Hg (1017.7 mb)
Winds: from the E (100 degrees) at 5 MPH (4 knots; 2.1 m/s)
Visibility: 10 or more miles (16+ km)
Ceiling: at least 12,000 feet AGL
Clouds: clear skies
Present Weather: no significant weather observed at this time
KLAL 201250Z 10004KT 10SM SKC 28/26 A3005

Conditions at: KLAL observed 20 August 2017  10:50 UTC
Temperature: 26.0°C (79°F)
Dewpoint: 25.0°C (77°F) [RH = 94%]
Pressure (altimeter): 30.02 inches Hg (1016.7 mb)
Winds: calm
Visibility: 10 or more miles (16+ km)
Ceiling: at least 12,000 feet AGL
Clouds: clear skies
Present Weather: no significant weather observed at this time
KLAL 201050Z 00000KT 10SM SKC 26/25 A3002

Conditions at: KLAL observed 20 August 2017  09:45 UTC
Temperature: 26.0°C (79°F)
Dewpoint: 25.0°C (77°F) [RH = 94%]
Pressure (altimeter): 30.00 inches Hg (1016.0 mb)
Winds: calm
Visibility: 10 or more miles (16+ km)
Ceiling: at least 12,000 feet AGL
Clouds: clear skies
Present Weather: no significant weather observed at this time
KLAL 200945Z 00000KT 10SM SKC 26/25 A3000

Conditions at: KLAL observed 20 August 2017  09:35 UTC
Temperature: 25.0°C (77°F)
Dewpoint: 25.0°C (77°F) [RH = 100%]
Pressure (altimeter): 30.00 inches Hg (1016.0 mb)
Winds: from the E (80 degrees) at 3 MPH (3 knots; 1.6 m/s)
Visibility: missing
Ceiling: unknown
Clouds: missing
Present Weather: automated observation with no human augmentation;
there may or may not be significant weather present at this time
KLAL 200935Z AUTO 08003KT 25/25 A3000 RMK AO2 PWINO

Conditions at: KLAL observed 20 August 2017  09:15 UTC
Temperature: 25.0°C (77°F)
Dewpoint: 25.0°C (77°F) [RH = 100%]
Pressure (altimeter): 29.99 inches Hg (1015.7 mb)
Winds: from the E (80 degrees) at 3 MPH (3 knots; 1.6 m/s)
Visibility: missing
Ceiling: unknown
Clouds: missing
Present Weather: automated observation with no human augmentation;
there may or may not be significant weather present at this time
KLAL 200915Z AUTO 08003KT 25/25 A2999 RMK AO2 PWINO

Conditions at: KLAL observed 20 August 2017  08:55 UTC
Temperature: 25.0°C (77°F)
Dewpoint: 25.0°C (77°F) [RH = 100%]
Pressure (altimeter): 29.99 inches Hg (1015.7 mb)
Winds: from the E (80 degrees) at 5 MPH (4 knots; 2.1 m/s)
Visibility: missing
Ceiling: unknown
Clouds: missing
Present Weather: automated observation with no human augmentation;
there may or may not be significant weather present at this time
KLAL 200855Z AUTO 08004KT 25/25 A2999 RMK AO2 PWINO

Conditions at: KLAL observed 20 August 2017  08:35 UTC
Temperature: 25.0°C (77°F)
Dewpoint: 25.0°C (77°F) [RH = 100%]
Pressure (altimeter): 29.99 inches Hg (1015.7 mb)
Winds: from the NE (50 degrees) at 3 MPH (3 knots; 1.6 m/s)
Visibility: missing
Ceiling: unknown
Clouds: missing
Present Weather: automated observation with no human augmentation;
there may or may not be significant weather present at this time
KLAL 200835Z AUTO 05003KT 25/25 A2999 RMK AO2 PWINO

Conditions at: KLAL observed 20 August 2017  08:15 UTC
Temperature: 25.0°C (77°F)
Dewpoint: 25.0°C (77°F) [RH = 100%]
Pressure (altimeter): 30.00 inches Hg (1016.0 mb)
Winds: from the NE (50 degrees) at 3 MPH (3 knots; 1.6 m/s)
Visibility: missing
Ceiling: unknown
Clouds: missing
Present Weather: automated observation with no human augmentation;
there may or may not be significant weather present at this time
KLAL 200815Z AUTO 05003KT 25/25 A3000 RMK AO2 PWINO

Conditions at: KLAL observed 20 August 2017  07:55 UTC
Temperature: 25.0°C (77°F)
Dewpoint: 25.0°C (77°F) [RH = 100%]
Pressure (altimeter): 29.99 inches Hg (1015.7 mb)
Winds: calm
Visibility: missing
Ceiling: unknown
Clouds: missing
Present Weather: automated observation with no human augmentation;
there may or may not be significant weather present at this time
KLAL 200755Z AUTO 00000KT 25/25 A2999 RMK AO2 PWINO

Conditions at: KLAL observed 20 August 2017  07:35 UTC
Temperature: 25.0°C (77°F)
Dewpoint: 25.0°C (77°F) [RH = 100%]
Pressure (altimeter): 29.99 inches Hg (1015.7 mb)
Winds: from the SE (130 degrees) at 5 MPH (4 knots; 2.1 m/s)
Visibility: missing
Ceiling: unknown
Clouds: missing
Present Weather: automated observation with no human augmentation;
there may or may not be significant weather present at this time
KLAL 200735Z AUTO 13004KT 25/25 A2999 RMK AO2 PWINO

Conditions at: KLAL observed 20 August 2017  07:15 UTC
Temperature: 25.0°C (77°F)
Dewpoint: 25.0°C (77°F) [RH = 100%]
Pressure (altimeter): 30.00 inches Hg (1016.0 mb)
Winds: from the ESE (110 degrees) at 7 MPH (6 knots; 3.1 m/s)
Visibility: missing
Ceiling: unknown
Clouds: missing
Present Weather: automated observation with no human augmentation;
there may or may not be significant weather present at this time
KLAL 200715Z AUTO 11006KT 25/25 A3000 RMK AO2 LTG DSNT SE PWINO

Conditions at: KLAL observed 20 August 2017  06:55 UTC
Temperature: 26.0°C (79°F)
Dewpoint: 24.0°C (75°F) [RH = 89%]
Pressure (altimeter): 30.00 inches Hg (1016.0 mb)
Winds: calm
Visibility: missing
Ceiling: unknown
Clouds: missing
Present Weather: automated observation with no human augmentation;
there may or may not be significant weather present at this time
KLAL 200655Z AUTO 00000KT 26/24 A3000 RMK AO2 LTG DSNT E PWINO

Conditions at: KLAL observed 20 August 2017  06:35 UTC
Temperature: 26.0°C (79°F)
Dewpoint: 24.0°C (75°F) [RH = 89%]
Pressure (altimeter): 29.99 inches Hg (1015.7 mb)
Winds: calm
Visibility: missing
Ceiling: unknown
Clouds: missing
Present Weather: automated observation with no human augmentation;
there may or may not be significant weather present at this time
KLAL 200635Z AUTO 00000KT 26/24 A2999 RMK AO2 PWINO

Conditions at: KLAL observed 20 August 2017  06:15 UTC
Temperature: 26.0°C (79°F)
Dewpoint: 23.0°C (73°F) [RH = 84%]
Pressure (altimeter): 30.00 inches Hg (1016.0 mb)
Winds: calm
Visibility: missing
Ceiling: at least 12,000 feet AGL
Clouds: sky clear below 12,000 feet AGL
Present Weather: automated observation with no human augmentation;
there may or may not be significant weather present at this time
KLAL 200615Z AUTO 00000KT CLR 26/23 A3000 RMK AO2 LTG DSNT SW PWINO

Conditions at: KLAL observed 20 August 2017  05:55 UTC
Temperature: 26.0°C (79°F)
Dewpoint: 23.0°C (73°F) [RH = 84%]
Pressure (altimeter): 30.01 inches Hg (1016.3 mb)
Winds: calm
Visibility: missing
Ceiling: at least 12,000 feet AGL
Clouds: sky clear below 12,000 feet AGL
Present Weather: automated observation with no human augmentation;
there may or may not be significant weather present at this time
KLAL 200555Z AUTO 00000KT CLR 26/23 A3001 RMK AO2 PWINO

Conditions at: KLAL observed 20 August 2017  05:35 UTC
Temperature: 26.0°C (79°F)
Dewpoint: 23.0°C (73°F) [RH = 84%]
Pressure (altimeter): 30.02 inches Hg (1016.7 mb)
Winds: calm
Visibility: missing
Ceiling: unknown
Clouds: missing
Present Weather: automated observation with no human augmentation;
there may or may not be significant weather present at this time
KLAL 200535Z AUTO 00000KT 26/23 A3002 RMK AO2 PWINO

Conditions at: KLAL observed 20 August 2017  05:15 UTC
Temperature: 26.0°C (79°F)
Dewpoint: 23.0°C (73°F) [RH = 84%]
Pressure (altimeter): 30.02 inches Hg (1016.7 mb)
Winds: calm
Visibility: missing
Ceiling: at least 12,000 feet AGL
Clouds: sky clear below 12,000 feet AGL
Present Weather: automated observation with no human augmentation;
there may or may not be significant weather present at this time
KLAL 200515Z AUTO 00000KT CLR 26/23 A3002 RMK AO2 PWINO

Conditions at: KLAL observed 20 August 2017  04:55 UTC
Temperature: 26.0°C (79°F)
Dewpoint: 23.0°C (73°F) [RH = 84%]
Pressure (altimeter): 30.02 inches Hg (1016.7 mb)
Winds: calm
Visibility: missing
Ceiling: at least 12,000 feet AGL
Clouds: sky clear below 12,000 feet AGL
Present Weather: automated observation with no human augmentation;
there may or may not be significant weather present at this time
KLAL 200455Z AUTO 00000KT CLR 26/23 A3002 RMK AO2 PWINO